aviador You're here:

KPOV Decoded Metar

in
Report Time2018-01-16 20:55:00
UTC Time2018-01-16 21:06:37
Flight Rules vfr VFR
Wind250° at 06 kt
W.Decomp.*RWY 27: 5.6 kt HW 2.1 kt LCW
W.Rank250° ranks 1
Current wind is below 250° avg. (7.6)
Visibility9999 m
Phenomena:N/A
Clouds:N/A
Expected CloudBase > 2,400 ft AGL from Temp-Dew spread
CeilingNone
Temp-11°C
Dew Point-17°C (62% RH)
AAT-16.6°C
QNH1028 hPa
Raw Report
METAR KPOV 162055Z AUTO 25006KT 10SM CLR M11/M17 A3037 RMK AO2 T11121167=

Extra information for KPOV:More info

Social comments